createdAt,value
2018-05-15T00:00:07.479Z,15.90
2018-05-15T00:01:07.511Z,12.80
2018-05-15T00:02:07.547Z,13.60
2018-05-15T00:03:07.582Z,13.10
2018-05-15T00:04:07.612Z,12.90
2018-05-15T00:05:07.648Z,16.10
2018-05-15T00:06:07.680Z,14.30
2018-05-15T00:07:07.712Z,14.90
2018-05-15T00:08:07.745Z,14.00
2018-05-15T00:09:07.779Z,18.40
2018-05-15T00:10:07.813Z,15.70
2018-05-15T00:11:07.849Z,19.20
2018-05-15T00:12:07.878Z,22.30
2018-05-15T00:13:07.911Z,19.90
2018-05-15T00:14:07.946Z,16.70
2018-05-15T00:15:07.979Z,17.10
2018-05-15T00:16:08.011Z,21.20
2018-05-15T00:17:08.046Z,20.60
2018-05-15T00:18:08.078Z,15.80
2018-05-15T00:19:08.113Z,15.60
2018-05-15T00:20:08.151Z,19.30
2018-05-15T00:21:08.179Z,22.20
2018-05-15T00:22:08.213Z,18.80
2018-05-15T00:23:08.246Z,18.30
2018-05-15T00:24:08.278Z,20.80
2018-05-15T00:25:08.312Z,17.50
2018-05-15T00:26:08.345Z,19.60
2018-05-15T00:27:08.380Z,16.70
2018-05-15T00:28:08.411Z,21.70
2018-05-15T00:29:08.447Z,18.30
2018-05-15T00:30:08.480Z,15.60
2018-05-15T00:31:08.517Z,21.10
2018-05-15T00:32:08.546Z,23.40
2018-05-15T00:33:08.580Z,23.60
2018-05-15T00:34:08.613Z,29.20
2018-05-15T00:35:08.647Z,24.80
2018-05-15T00:36:08.681Z,18.80
2018-05-15T00:37:08.713Z,17.60
2018-05-15T00:38:08.747Z,19.50
2018-05-15T00:39:08.780Z,21.20
2018-05-15T00:40:08.813Z,23.60
2018-05-15T00:41:08.850Z,19.80
2018-05-15T00:42:08.880Z,28.10
2018-05-15T00:43:08.915Z,25.90
2018-05-15T00:44:08.970Z,28.70
2018-05-15T00:45:08.980Z,23.60
2018-05-15T00:46:09.017Z,21.70
2018-05-15T00:47:09.049Z,21.80
2018-05-15T00:48:09.080Z,24.90
2018-05-15T00:49:09.115Z,26.50
2018-05-15T00:50:09.147Z,27.90
2018-05-15T00:51:09.182Z,19.70
2018-05-15T00:52:09.215Z,29.10
2018-05-15T00:53:09.247Z,26.50
2018-05-15T00:54:09.283Z,30.80
2018-05-15T00:55:09.319Z,24.30
2018-05-15T00:56:09.347Z,21.80
2018-05-15T00:57:09.383Z,21.90
2018-05-15T00:58:09.420Z,23.10
2018-05-15T00:59:09.450Z,21.80
2018-05-15T01:00:09.483Z,19.70
2018-05-15T01:01:09.517Z,22.20
2018-05-15T01:02:09.553Z,24.10
2018-05-15T01:03:09.584Z,20.40
2018-05-15T01:04:09.617Z,20.60
2018-05-15T01:05:09.654Z,20.60
2018-05-15T01:06:09.684Z,21.00
2018-05-15T01:07:09.718Z,21.60
2018-05-15T01:08:09.750Z,20.20
2018-05-15T01:09:09.784Z,19.30
2018-05-15T01:10:09.821Z,22.80
2018-05-15T01:11:09.854Z,24.40
2018-05-15T01:12:09.886Z,27.10
2018-05-15T01:13:09.920Z,24.60
2018-05-15T01:14:09.954Z,23.80
2018-05-15T01:15:09.987Z,25.90
2018-05-15T01:16:10.021Z,24.00
2018-05-15T01:17:10.057Z,24.70
2018-05-15T01:18:10.091Z,27.20
2018-05-15T01:19:10.122Z,20.90
2018-05-15T01:20:10.155Z,25.10
2018-05-15T01:21:10.190Z,22.30
2018-05-15T01:22:10.223Z,20.80
2018-05-15T01:23:10.256Z,23.30
2018-05-15T01:24:10.288Z,23.10
2018-05-15T01:25:10.323Z,24.40
2018-05-15T01:26:10.357Z,24.30
2018-05-15T01:27:10.390Z,27.20
2018-05-15T01:28:10.424Z,24.10
2018-05-15T01:29:10.459Z,24.40
2018-05-15T01:30:10.491Z,25.20
2018-05-15T01:31:10.525Z,25.00
2018-05-15T01:32:10.557Z,25.20
2018-05-15T01:33:10.591Z,25.50
2018-05-15T01:34:10.625Z,26.50
2018-05-15T01:35:10.657Z,29.80
2018-05-15T01:36:10.691Z,24.90
2018-05-15T01:37:10.808Z,30.80
2018-05-15T01:38:10.759Z,28.00
2018-05-15T01:39:10.793Z,24.80
2018-05-15T01:40:10.826Z,23.60
2018-05-15T01:41:10.859Z,24.40
2018-05-15T01:42:10.893Z,19.70
2018-05-15T01:43:10.927Z,22.30
2018-05-15T01:44:10.961Z,21.90
2018-05-15T01:45:10.998Z,20.80
2018-05-15T01:46:11.027Z,23.50
2018-05-15T01:47:11.060Z,26.50
2018-05-15T01:48:11.094Z,24.70
2018-05-15T01:49:11.128Z,25.20
2018-05-15T01:50:11.160Z,27.20
2018-05-15T01:51:11.194Z,27.10
2018-05-15T01:52:11.227Z,24.90
2018-05-15T01:53:11.261Z,22.90
2018-05-15T01:54:11.297Z,26.30
2018-05-15T01:55:11.328Z,20.60
2018-05-15T01:56:11.359Z,23.60
2018-05-15T01:57:11.393Z,21.70
2018-05-15T01:58:11.428Z,23.70
2018-05-15T01:59:11.466Z,22.40
2018-05-15T02:00:11.496Z,21.00
2018-05-15T02:01:11.526Z,24.90
2018-05-15T02:02:11.560Z,23.00
2018-05-15T02:03:11.596Z,24.10
2018-05-15T02:04:11.631Z,25.60
2018-05-15T02:05:11.660Z,29.20
2018-05-15T02:06:11.707Z,23.80
2018-05-15T02:07:11.729Z,25.70
2018-05-15T02:08:11.762Z,18.50
2018-05-15T02:09:11.794Z,19.30
2018-05-15T02:10:11.830Z,21.30
2018-05-15T02:11:11.862Z,25.10
2018-05-15T02:12:11.895Z,19.80
2018-05-15T02:13:11.929Z,18.20
2018-05-15T02:14:11.962Z,21.00
2018-05-15T02:15:11.997Z,20.30
2018-05-15T02:16:12.084Z,22.00
2018-05-15T02:17:12.063Z,21.70
2018-05-15T02:18:12.097Z,22.40
2018-05-15T02:19:12.131Z,25.00
2018-05-15T02:20:12.162Z,22.40
2018-05-15T02:21:12.197Z,25.90
2018-05-15T02:22:12.230Z,20.70
2018-05-15T02:23:12.264Z,21.00
2018-05-15T02:24:12.298Z,20.30
2018-05-15T02:25:12.331Z,19.70
2018-05-15T02:26:12.366Z,20.50
2018-05-15T02:27:12.398Z,25.30
2018-05-15T02:28:12.435Z,23.70
2018-05-15T02:29:12.464Z,24.60
2018-05-15T02:30:12.499Z,23.30
2018-05-15T02:31:12.533Z,23.40
2018-05-15T02:32:12.572Z,22.00
2018-05-15T02:33:12.599Z,22.40
2018-05-15T02:34:12.632Z,25.90
2018-05-15T02:35:12.667Z,24.20
2018-05-15T02:36:12.701Z,22.30
2018-05-15T02:37:12.735Z,24.10
2018-05-15T02:38:12.767Z,20.70
2018-05-15T02:39:12.800Z,25.30
2018-05-15T02:40:12.834Z,27.10
2018-05-15T02:41:12.868Z,25.40
2018-05-15T02:42:12.902Z,24.60
2018-05-15T02:43:12.935Z,24.90
2018-05-15T02:44:12.971Z,25.40
2018-05-15T02:45:13.006Z,20.20
2018-05-15T02:46:13.035Z,28.40
2018-05-15T02:47:13.070Z,22.10
2018-05-15T02:48:13.107Z,31.00
2018-05-15T02:49:13.136Z,26.30
2018-05-15T02:50:13.168Z,25.20
2018-05-15T02:51:13.202Z,24.00
2018-05-15T02:52:13.237Z,19.10
2018-05-15T02:53:13.271Z,24.40
2018-05-15T02:54:13.304Z,23.90
2018-05-15T02:55:13.338Z,26.60
2018-05-15T02:56:13.368Z,25.20
2018-05-15T02:57:13.404Z,24.90
2018-05-15T02:58:13.441Z,30.20
2018-05-15T02:59:13.471Z,28.20
2018-05-15T03:00:13.503Z,25.60
2018-05-15T03:01:13.538Z,26.30
2018-05-15T03:02:13.570Z,25.80
2018-05-15T03:03:13.608Z,26.80
2018-05-15T03:04:13.639Z,28.50
2018-05-15T03:05:13.672Z,25.60
2018-05-15T03:06:13.705Z,21.40
2018-05-15T03:07:13.740Z,24.00
2018-05-15T03:08:13.772Z,24.40
2018-05-15T03:09:13.808Z,21.80
2018-05-15T03:10:13.839Z,27.30
2018-05-15T03:11:13.872Z,24.20
2018-05-15T03:12:13.904Z,24.20
2018-05-15T03:13:13.942Z,26.70
2018-05-15T03:14:13.972Z,34.20
2018-05-15T03:15:14.007Z,26.30
2018-05-15T03:16:14.041Z,32.50
2018-05-15T03:17:14.073Z,27.60
2018-05-15T03:18:14.106Z,28.60
2018-05-15T03:19:14.140Z,26.70
2018-05-15T03:20:14.173Z,30.70
2018-05-15T03:21:14.207Z,23.50
2018-05-15T03:22:14.240Z,24.80
2018-05-15T03:23:14.277Z,25.30
2018-05-15T03:24:14.308Z,25.40
2018-05-15T03:25:14.340Z,22.40
2018-05-15T03:26:14.374Z,26.10
2018-05-15T03:27:14.409Z,27.40
2018-05-15T03:28:14.443Z,23.70
2018-05-15T03:29:14.475Z,29.20
2018-05-15T03:30:14.508Z,28.60
2018-05-15T03:31:14.545Z,28.40
2018-05-15T03:32:14.574Z,26.60
2018-05-15T03:33:14.635Z,26.20
2018-05-15T03:34:14.643Z,28.20
2018-05-15T03:35:14.675Z,30.70
2018-05-15T03:36:14.709Z,29.70
2018-05-15T03:37:14.743Z,30.20
2018-05-15T03:38:14.776Z,32.10
2018-05-15T03:39:14.809Z,30.70
2018-05-15T03:40:14.843Z,33.90
2018-05-15T03:41:14.876Z,35.10
2018-05-15T03:42:14.910Z,30.70
2018-05-15T03:43:14.944Z,34.10
2018-05-15T03:44:14.977Z,35.40
2018-05-15T03:45:15.010Z,31.40
2018-05-15T03:46:15.044Z,33.30
2018-05-15T03:47:15.078Z,30.40
2018-05-15T03:48:15.110Z,39.40
2018-05-15T03:49:15.144Z,35.00
2018-05-15T03:50:15.178Z,37.30
2018-05-15T03:51:15.211Z,35.10
2018-05-15T03:52:15.248Z,39.10
2018-05-15T03:53:15.278Z,36.60
2018-05-15T03:54:15.311Z,30.70
2018-05-15T03:55:15.347Z,34.40
2018-05-15T03:56:15.378Z,37.90
2018-05-15T03:57:15.411Z,35.00
2018-05-15T03:58:15.445Z,35.90
2018-05-15T03:59:15.479Z,30.90
2018-05-15T04:00:15.512Z,36.40
2018-05-15T04:01:15.545Z,34.80
2018-05-15T04:02:15.673Z,32.60
2018-05-15T04:03:15.612Z,34.00
2018-05-15T04:04:15.645Z,34.30
2018-05-15T04:05:15.681Z,25.40
2018-05-15T04:06:15.713Z,33.40
2018-05-15T04:07:15.746Z,31.30
2018-05-15T04:08:15.777Z,36.70
2018-05-15T04:09:15.813Z,41.90
2018-05-15T04:10:15.846Z,42.00
2018-05-15T04:11:15.880Z,48.60
2018-05-15T04:12:15.913Z,39.50
2018-05-15T04:13:15.946Z,34.70
2018-05-15T04:14:15.981Z,30.30
2018-05-15T04:15:16.014Z,34.80
2018-05-15T04:16:16.047Z,33.90
2018-05-15T04:17:16.083Z,37.30
2018-05-15T04:18:16.117Z,35.50
2018-05-15T04:19:16.149Z,38.50
2018-05-15T04:20:16.181Z,35.80
2018-05-15T04:21:16.216Z,37.80
2018-05-15T04:22:16.250Z,39.70
2018-05-15T04:23:16.283Z,34.80
2018-05-15T04:24:16.316Z,31.10
2018-05-15T04:25:16.349Z,30.80
2018-05-15T04:26:16.383Z,31.60
2018-05-15T04:27:16.417Z,30.70
2018-05-15T04:28:16.497Z,33.40
2018-05-15T04:29:16.483Z,33.10
2018-05-15T04:30:16.523Z,33.00
2018-05-15T04:31:16.553Z,30.80
2018-05-15T04:32:16.585Z,36.10
2018-05-15T04:33:16.619Z,33.30
2018-05-15T04:34:16.652Z,30.80
2018-05-15T04:35:16.755Z,30.30
2018-05-15T04:36:16.720Z,31.00
2018-05-15T04:37:16.756Z,32.80
2018-05-15T04:38:16.788Z,32.40
2018-05-15T04:39:16.822Z,26.60
2018-05-15T04:40:16.857Z,28.00
2018-05-15T04:41:16.887Z,28.10
2018-05-15T04:42:16.922Z,25.70
2018-05-15T04:43:16.955Z,27.10
2018-05-15T04:44:16.988Z,30.30
2018-05-15T04:45:17.024Z,23.20
2018-05-15T04:46:17.056Z,21.90
2018-05-15T04:47:17.091Z,24.60
2018-05-15T04:48:17.122Z,27.40
2018-05-15T04:49:17.231Z,24.70
2018-05-15T04:50:17.191Z,22.90
2018-05-15T04:51:17.224Z,22.60
2018-05-15T04:52:17.257Z,22.50
2018-05-15T04:53:17.290Z,22.40
2018-05-15T04:54:17.325Z,19.30
2018-05-15T04:55:17.359Z,19.90
2018-05-15T04:56:17.390Z,20.40
2018-05-15T04:57:17.424Z,20.00
2018-05-15T04:58:17.458Z,19.70
2018-05-15T04:59:17.496Z,20.50
2018-05-15T05:00:17.527Z,21.70
2018-05-15T05:01:17.560Z,21.40
2018-05-15T05:02:17.593Z,19.80
2018-05-15T05:03:17.627Z,22.00
2018-05-15T05:04:17.660Z,21.20
2018-05-15T05:05:17.695Z,22.30
2018-05-15T05:06:17.727Z,25.70
2018-05-15T05:07:17.760Z,29.80
2018-05-15T05:08:17.797Z,25.80
2018-05-15T05:09:17.828Z,21.90
2018-05-15T05:10:17.862Z,21.60
2018-05-15T05:11:17.897Z,24.80
2018-05-15T05:12:17.929Z,24.30
2018-05-15T05:13:17.963Z,29.40
2018-05-15T05:14:17.997Z,24.90
2018-05-15T05:15:18.030Z,28.90
2018-05-15T05:16:18.064Z,29.20
2018-05-15T05:17:18.098Z,29.00
2018-05-15T05:18:18.133Z,32.30
2018-05-15T05:19:18.165Z,29.00
2018-05-15T05:20:18.198Z,29.60
2018-05-15T05:21:18.236Z,29.50
2018-05-15T05:22:18.267Z,30.20
2018-05-15T05:23:18.299Z,32.50
2018-05-15T05:24:18.334Z,27.30
2018-05-15T05:25:18.369Z,29.70
2018-05-15T05:26:18.401Z,27.30
2018-05-15T05:27:18.435Z,26.50
2018-05-15T05:28:18.468Z,29.50
2018-05-15T05:29:18.502Z,29.60
2018-05-15T05:30:18.536Z,31.30
2018-05-15T05:31:18.570Z,28.40
2018-05-15T05:32:18.603Z,29.10
2018-05-15T05:33:18.691Z,32.30
2018-05-15T05:34:18.671Z,33.30
2018-05-15T05:35:18.708Z,30.70
2018-05-15T05:36:18.739Z,28.90
2018-05-15T05:37:18.772Z,37.10
2018-05-15T05:38:18.806Z,30.60
2018-05-15T05:39:18.841Z,29.00
2018-05-15T05:40:18.873Z,30.30
2018-05-15T05:41:18.906Z,29.50
2018-05-15T05:42:18.941Z,29.70
2018-05-15T05:43:18.975Z,26.20
2018-05-15T05:44:19.008Z,25.50
2018-05-15T05:45:19.042Z,24.20
2018-05-15T05:46:19.086Z,25.50
2018-05-15T05:47:19.114Z,21.20
2018-05-15T05:48:19.142Z,25.50
2018-05-15T05:49:19.177Z,22.70
2018-05-15T05:50:19.211Z,27.20
2018-05-15T05:51:19.244Z,25.00
2018-05-15T05:52:19.280Z,27.50
2018-05-15T05:53:19.311Z,22.70
2018-05-15T05:54:19.345Z,25.40
2018-05-15T05:55:19.379Z,26.70
2018-05-15T05:56:19.416Z,24.70
2018-05-15T05:57:19.447Z,24.70
2018-05-15T05:58:19.479Z,23.30
2018-05-15T05:59:19.516Z,29.10
2018-05-15T06:00:19.548Z,25.20
2018-05-15T06:01:19.582Z,23.20
2018-05-15T06:02:19.614Z,27.90
2018-05-15T06:03:19.651Z,23.50
2018-05-15T06:04:19.731Z,27.90
2018-05-15T06:05:19.717Z,21.40
2018-05-15T06:06:19.751Z,23.10
2018-05-15T06:07:19.828Z,21.60
2018-05-15T06:08:19.819Z,29.40
2018-05-15T06:09:19.854Z,25.80
2018-05-15T06:10:19.888Z,24.10
2018-05-15T06:11:19.921Z,21.80
2018-05-15T06:12:19.957Z,21.50
2018-05-15T06:13:19.990Z,24.70
2018-05-15T06:14:20.087Z,24.60
2018-05-15T06:15:20.060Z,23.10
2018-05-15T06:16:20.096Z,22.40
2018-05-15T06:17:20.128Z,21.70
2018-05-15T06:18:20.162Z,18.80
2018-05-15T06:19:20.197Z,22.40
2018-05-15T06:20:20.231Z,21.50
2018-05-15T06:21:20.345Z,22.80
2018-05-15T06:22:20.301Z,21.00
2018-05-15T06:23:20.335Z,21.10
2018-05-15T06:24:20.369Z,23.30
2018-05-15T06:25:20.404Z,19.60
2018-05-15T06:26:20.444Z,23.20
2018-05-15T06:27:20.475Z,23.50
2018-05-15T06:28:20.510Z,21.20
2018-05-15T06:29:20.542Z,23.20
2018-05-15T06:30:20.577Z,25.70
2018-05-15T06:31:20.612Z,23.30
2018-05-15T06:32:20.719Z,19.50
2018-05-15T06:33:20.680Z,20.70
2018-05-15T06:34:20.715Z,20.70
2018-05-15T06:35:20.751Z,22.40
2018-05-15T06:36:20.784Z,21.90
2018-05-15T06:37:20.820Z,22.50
2018-05-15T06:38:20.855Z,28.00
2018-05-15T06:39:20.889Z,23.40
2018-05-15T06:40:20.923Z,27.00
2018-05-15T06:41:20.957Z,26.90
2018-05-15T06:42:20.992Z,29.30
2018-05-15T06:43:21.026Z,23.10
2018-05-15T06:44:21.061Z,21.00
2018-05-15T06:45:21.096Z,23.20
2018-05-15T06:46:21.131Z,20.90
2018-05-15T06:47:21.165Z,24.30
2018-05-15T06:48:21.207Z,23.00
2018-05-15T06:49:21.235Z,21.70
2018-05-15T06:50:21.269Z,27.40
2018-05-15T06:51:21.304Z,19.80
2018-05-15T06:52:21.337Z,23.20
2018-05-15T06:53:21.373Z,22.80
2018-05-15T06:54:21.406Z,23.00
2018-05-15T06:55:21.443Z,28.60
2018-05-15T06:56:21.480Z,23.50
2018-05-15T06:57:21.511Z,19.80
2018-05-15T06:58:21.546Z,21.00
2018-05-15T06:59:21.581Z,23.10
2018-05-15T07:00:21.616Z,19.40
2018-05-15T07:01:21.650Z,22.50
2018-05-15T07:02:21.685Z,26.20
2018-05-15T07:03:21.720Z,24.80
2018-05-15T07:04:21.754Z,22.10
2018-05-15T07:05:21.789Z,26.10
2018-05-15T07:06:21.823Z,22.80
2018-05-15T07:07:21.859Z,23.80
2018-05-15T07:08:21.893Z,22.20
2018-05-15T07:09:21.928Z,19.70
2018-05-15T07:10:21.963Z,29.90
2018-05-15T07:11:21.998Z,22.30
2018-05-15T07:12:22.032Z,18.90
2018-05-15T07:13:22.070Z,24.70
2018-05-15T07:14:22.102Z,19.70
2018-05-15T07:15:22.138Z,23.00
2018-05-15T07:16:22.171Z,24.30
2018-05-15T07:17:22.207Z,24.30
2018-05-15T07:18:22.245Z,23.00
2018-05-15T07:19:22.318Z,19.30
2018-05-15T07:20:22.310Z,20.70
2018-05-15T07:21:22.344Z,19.10
2018-05-15T07:22:22.381Z,19.90
2018-05-15T07:23:22.416Z,26.90
2018-05-15T07:24:22.450Z,27.00
2018-05-15T07:25:22.485Z,23.60
2018-05-15T07:26:22.520Z,25.80
2018-05-15T07:27:22.593Z,21.10
2018-05-15T07:28:22.590Z,23.30
2018-05-15T07:29:22.630Z,23.70
2018-05-15T07:30:22.658Z,20.70
2018-05-15T07:31:22.695Z,22.90
2018-05-15T07:32:22.728Z,22.20
2018-05-15T07:33:22.766Z,26.60
2018-05-15T07:34:22.799Z,23.40
2018-05-15T07:35:22.838Z,20.80
2018-05-15T07:36:22.868Z,26.10
2018-05-15T07:37:22.903Z,24.70
2018-05-15T07:38:22.938Z,20.60
2018-05-15T07:39:22.975Z,20.90
2018-05-15T07:40:23.054Z,26.30
2018-05-15T07:41:23.043Z,21.40
2018-05-15T07:42:23.079Z,25.60
2018-05-15T07:43:23.114Z,26.30
2018-05-15T07:44:23.147Z,21.00
2018-05-15T07:45:23.184Z,19.60
2018-05-15T07:46:23.219Z,23.70
2018-05-15T07:47:23.254Z,22.70
2018-05-15T07:48:23.288Z,20.30
2018-05-15T07:49:23.326Z,20.30
2018-05-15T07:50:23.364Z,22.90
2018-05-15T07:51:23.396Z,19.50
2018-05-15T07:52:23.430Z,22.60
2018-05-15T07:53:23.465Z,25.80
2018-05-15T07:54:23.501Z,25.50
2018-05-15T07:55:23.537Z,26.50
2018-05-15T07:56:23.571Z,22.70
2018-05-15T07:57:23.607Z,21.70
2018-05-15T07:58:23.643Z,24.90
2018-05-15T07:59:23.679Z,26.30
2018-05-15T08:00:23.713Z,23.30
2018-05-15T08:01:23.751Z,25.40
2018-05-15T08:02:23.784Z,31.50
2018-05-15T08:03:23.822Z,25.40
2018-05-15T08:04:23.860Z,36.40
2018-05-15T08:05:23.892Z,26.80
2018-05-15T08:06:23.928Z,27.40
2018-05-15T08:07:23.966Z,29.00
2018-05-15T08:08:24.000Z,30.20
2018-05-15T08:09:24.036Z,29.40
2018-05-15T08:10:24.074Z,27.50
2018-05-15T08:11:24.109Z,25.40
2018-05-15T08:12:24.143Z,28.10
2018-05-15T08:13:24.186Z,30.20
2018-05-15T08:14:24.215Z,30.70
2018-05-15T08:15:24.252Z,34.80
2018-05-15T08:16:24.290Z,28.40
2018-05-15T08:17:24.321Z,29.50
2018-05-15T08:18:24.361Z,28.50
2018-05-15T08:19:24.397Z,31.20
2018-05-15T08:20:24.430Z,34.80
2018-05-15T08:21:24.466Z,29.70
2018-05-15T08:22:24.588Z,34.40
2018-05-15T08:23:24.540Z,35.30
2018-05-15T08:24:24.578Z,39.40
2018-05-15T08:25:24.609Z,34.80
2018-05-15T08:26:24.645Z,31.50
2018-05-15T08:27:24.681Z,36.60
2018-05-15T08:28:24.719Z,40.90
2018-05-15T08:29:24.755Z,40.40
2018-05-15T08:30:24.788Z,43.80
2018-05-15T08:31:24.822Z,39.00
2018-05-15T08:32:24.857Z,42.00
2018-05-15T08:33:24.893Z,39.80
2018-05-15T08:34:24.929Z,33.70
2018-05-15T08:35:24.966Z,34.40
2018-05-15T08:36:25.001Z,36.30
2018-05-15T08:37:25.125Z,36.50
2018-05-15T08:38:25.073Z,38.40
2018-05-15T08:39:25.109Z,36.00
2018-05-15T08:40:25.144Z,40.50
2018-05-15T08:41:25.189Z,35.20
2018-05-15T08:42:25.217Z,39.60
2018-05-15T08:43:25.253Z,39.40
2018-05-15T08:44:25.349Z,36.80
2018-05-15T08:45:25.374Z,34.60
2018-05-15T08:46:25.362Z,33.20
2018-05-15T08:47:25.398Z,38.80
2018-05-15T08:48:25.433Z,36.50
2018-05-15T08:49:25.484Z,35.50
2018-05-15T08:50:25.506Z,36.40
2018-05-15T08:51:25.604Z,44.90
2018-05-15T08:52:25.578Z,41.90
2018-05-15T08:53:25.615Z,40.20
2018-05-15T08:54:25.651Z,44.90
2018-05-15T08:55:25.688Z,43.20
2018-05-15T08:56:25.722Z,46.70
2018-05-15T08:57:25.759Z,43.70
2018-05-15T08:58:25.795Z,39.20
2018-05-15T08:59:25.832Z,40.40
2018-05-15T09:00:25.867Z,38.60
2018-05-15T09:01:25.903Z,33.70
2018-05-15T09:02:25.940Z,35.80
2018-05-15T09:03:25.977Z,34.40
2018-05-15T09:04:26.015Z,35.50
2018-05-15T09:05:26.048Z,36.00
2018-05-15T09:06:26.084Z,35.70
2018-05-15T09:07:26.122Z,31.00
2018-05-15T09:08:26.157Z,37.00
2018-05-15T09:09:26.196Z,36.70
2018-05-15T09:10:26.231Z,33.50
2018-05-15T09:11:26.269Z,36.20
2018-05-15T09:12:26.304Z,40.60
2018-05-15T09:13:26.342Z,38.50
2018-05-15T09:14:26.379Z,33.50
2018-05-15T09:15:26.418Z,35.70
2018-05-15T09:16:26.454Z,36.90
2018-05-15T09:17:26.491Z,35.10
2018-05-15T09:18:26.529Z,38.60
2018-05-15T09:19:26.567Z,37.10
2018-05-15T09:20:26.604Z,39.10
2018-05-15T09:21:26.641Z,32.60
2018-05-15T09:22:26.679Z,30.60
2018-05-15T09:23:26.719Z,33.40
2018-05-15T09:24:26.754Z,37.00
2018-05-15T09:25:26.792Z,34.20
2018-05-15T09:26:26.830Z,33.50
2018-05-15T09:27:26.872Z,33.20
2018-05-15T09:28:26.906Z,30.10
2018-05-15T09:29:27.044Z,33.40
2018-05-15T09:30:26.988Z,30.80
2018-05-15T09:31:27.020Z,32.10
2018-05-15T09:32:27.055Z,29.80
2018-05-15T09:33:27.099Z,27.70
2018-05-15T09:34:27.133Z,26.40
2018-05-15T09:35:27.171Z,23.70
2018-05-15T09:36:27.247Z,29.00
2018-05-15T09:37:27.244Z,26.60
2018-05-15T09:38:27.282Z,28.90
2018-05-15T09:39:27.320Z,31.40
2018-05-15T09:40:27.356Z,27.80
2018-05-15T09:41:27.395Z,34.00
2018-05-15T09:42:27.434Z,26.20
2018-05-15T09:43:27.472Z,33.10
2018-05-15T09:44:27.508Z,36.20
2018-05-15T09:45:27.545Z,33.90
2018-05-15T09:46:27.583Z,37.00
2018-05-15T09:47:27.622Z,39.00
2018-05-15T09:48:27.659Z,43.80
2018-05-15T09:49:27.697Z,47.30
2018-05-15T09:50:27.734Z,46.20
2018-05-15T09:51:30.394Z,51.50
2018-05-15T09:52:27.809Z,50.40
2018-05-15T09:53:27.865Z,49.60
2018-05-15T09:54:27.890Z,55.50
2018-05-15T09:55:27.925Z,55.20
2018-05-15T09:56:27.966Z,52.20
2018-05-15T09:57:28.003Z,53.20
2018-05-15T09:58:28.043Z,55.70
2018-05-15T09:59:28.082Z,57.40
2018-05-15T10:00:28.121Z,53.60
2018-05-15T10:01:28.160Z,58.20
2018-05-15T10:02:28.200Z,60.20
2018-05-15T10:03:28.243Z,55.90
2018-05-15T10:04:28.279Z,52.70
2018-05-15T10:05:28.319Z,51.30
2018-05-15T10:06:28.360Z,54.30
2018-05-15T10:07:28.401Z,50.10
2018-05-15T10:08:28.439Z,46.00
2018-05-15T10:09:28.484Z,53.20
2018-05-15T10:10:28.524Z,45.20
2018-05-15T10:11:28.567Z,52.80
2018-05-15T10:12:28.602Z,50.00
2018-05-15T10:13:28.645Z,53.10
2018-05-15T10:14:28.685Z,43.10
2018-05-15T10:15:28.726Z,41.70
2018-05-15T10:16:28.766Z,47.00
2018-05-15T10:17:28.808Z,46.90
2018-05-15T10:18:28.850Z,44.60
2018-05-15T10:19:28.890Z,46.50
2018-05-15T10:20:28.931Z,45.10
2018-05-15T10:24:29.521Z,39.10
2018-05-15T10:25:29.136Z,43.90
2018-05-15T10:26:29.200Z,46.20
2018-05-15T10:27:29.219Z,39.10
2018-05-15T10:28:29.259Z,47.20
2018-05-15T10:29:29.301Z,38.10
2018-05-15T10:30:29.342Z,43.40
2018-05-15T10:31:29.387Z,42.40
2018-05-15T10:32:29.425Z,38.70
2018-05-15T10:33:29.468Z,33.40
2018-05-15T10:34:29.508Z,39.00
2018-05-15T10:36:29.609Z,37.90
2018-05-15T10:37:29.631Z,41.30
2018-05-15T10:38:29.696Z,41.50
2018-05-15T10:39:29.719Z,39.60
2018-05-15T10:40:29.757Z,39.90
2018-05-15T10:41:29.799Z,37.00
2018-05-15T10:42:29.841Z,38.40
2018-05-15T10:43:29.888Z,32.70
2018-05-15T10:44:30.146Z,34.60
2018-05-15T10:47:30.060Z,30.40
2018-05-15T10:48:30.100Z,33.30
2018-05-15T10:49:30.149Z,34.10
2018-05-15T10:50:30.190Z,36.90
2018-05-15T10:51:30.234Z,35.60
2018-05-15T10:52:30.278Z,29.80
2018-05-15T10:53:30.326Z,34.90
2018-05-15T10:54:30.368Z,34.00
2018-05-15T10:55:30.413Z,38.10
2018-05-15T10:56:30.456Z,34.40
2018-05-15T10:57:30.502Z,34.30
2018-05-15T10:58:30.550Z,29.70
2018-05-15T10:59:30.610Z,30.50
2018-05-15T11:00:30.638Z,31.60
2018-05-15T11:01:30.684Z,33.20
2018-05-15T11:02:30.735Z,32.70
2018-05-15T11:03:30.776Z,32.10
2018-05-15T11:04:30.822Z,29.60
2018-05-15T11:05:30.869Z,33.30
2018-05-15T11:06:31.365Z,30.30
2018-05-15T11:07:30.962Z,27.80
2018-05-15T11:08:31.034Z,36.90
2018-05-15T11:09:31.057Z,33.60
2018-05-15T11:10:31.124Z,35.20
2018-05-15T11:11:31.368Z,31.80
2018-05-15T11:12:31.417Z,32.40
2018-05-15T11:13:31.245Z,29.00
2018-05-15T11:14:31.284Z,34.30
2018-05-15T11:15:31.337Z,33.10
2018-05-15T11:16:31.375Z,36.20
2018-05-15T11:17:31.427Z,31.20
2018-05-15T11:18:31.470Z,28.90
2018-05-15T11:19:31.517Z,28.70
2018-05-15T11:20:31.565Z,30.40
2018-05-15T11:21:31.613Z,28.30
2018-05-15T11:22:31.660Z,32.70
2018-05-15T11:23:31.709Z,30.60
2018-05-15T11:24:31.848Z,29.50
2018-05-15T11:25:31.806Z,29.70
2018-05-15T11:26:31.854Z,28.80
2018-05-15T11:27:31.904Z,27.90
2018-05-15T11:28:31.953Z,27.60
2018-05-15T11:29:32.003Z,26.80
2018-05-15T11:30:32.147Z,26.50
2018-05-15T11:31:32.102Z,27.60
2018-05-15T11:32:32.150Z,27.70
2018-05-15T11:33:32.200Z,25.60
2018-05-15T11:34:32.252Z,28.70
2018-05-15T11:35:32.302Z,26.70
2018-05-15T11:36:32.350Z,26.60
2018-05-15T11:37:32.400Z,28.10
2018-05-15T11:38:32.450Z,34.10
2018-05-15T11:39:32.500Z,28.40
2018-05-15T11:40:32.548Z,27.50
2018-05-15T11:41:32.638Z,29.00
2018-05-15T11:42:32.648Z,26.80
2018-05-15T11:43:32.698Z,26.20
2018-05-15T11:44:32.802Z,28.50
2018-05-15T11:45:32.803Z,25.90
2018-05-15T11:46:32.847Z,26.10
2018-05-15T11:47:32.956Z,26.60
2018-05-15T11:48:33.347Z,24.60
2018-05-15T11:49:33.229Z,24.40
2018-05-15T11:50:34.046Z,24.90
2018-05-15T11:51:33.943Z,25.20
2018-05-15T11:52:33.545Z,23.60
2018-05-15T11:53:33.205Z,23.20
2018-05-15T11:54:33.255Z,23.80
2018-05-15T11:55:35.295Z,22.80
2018-05-15T11:56:33.449Z,20.50
2018-05-15T11:57:33.407Z,22.80
2018-05-15T11:58:33.459Z,21.40
2018-05-15T11:59:33.512Z,21.00
2018-05-15T12:00:33.568Z,20.80
2018-05-15T12:01:33.614Z,22.50
2018-05-15T12:02:33.737Z,22.30
2018-05-15T12:03:33.716Z,21.60
2018-05-15T12:04:33.765Z,21.90
2018-05-15T12:05:33.814Z,23.20
2018-05-15T12:06:33.950Z,23.30
2018-05-15T12:07:33.912Z,23.70
2018-05-15T12:08:33.960Z,21.70
2018-05-15T12:09:34.011Z,21.80
2018-05-15T12:10:34.123Z,22.40
2018-05-15T12:11:34.157Z,22.80
2018-05-15T12:12:34.155Z,20.50
2018-05-15T12:13:34.202Z,20.20
2018-05-15T12:14:34.250Z,20.20
2018-05-15T12:15:34.297Z,20.30
2018-05-15T12:16:34.344Z,22.40
2018-05-15T12:17:34.391Z,23.80
2018-05-15T12:18:34.479Z,21.70
2018-05-15T12:19:34.488Z,20.20
2018-05-15T12:20:34.534Z,20.40
2018-05-15T12:21:34.582Z,20.70
2018-05-15T12:22:34.630Z,21.10
2018-05-15T12:23:34.679Z,20.60
2018-05-15T12:24:34.826Z,19.90
2018-05-15T12:25:34.774Z,18.50
2018-05-15T12:26:34.823Z,17.70
2018-05-15T12:27:34.871Z,20.10
2018-05-15T12:28:34.918Z,18.30
2018-05-15T12:29:34.967Z,20.10
2018-05-15T12:30:35.016Z,19.80
2018-05-15T12:31:35.070Z,19.20
2018-05-15T12:32:35.113Z,17.40
2018-05-15T12:33:35.164Z,17.70
2018-05-15T12:34:35.212Z,18.50
2018-05-15T12:35:35.263Z,17.30
2018-05-15T12:36:35.312Z,17.60
2018-05-15T12:37:35.361Z,18.40
2018-05-15T12:38:35.411Z,20.40
2018-05-15T12:39:35.460Z,18.60
2018-05-15T12:40:35.511Z,19.10
2018-05-15T12:41:35.584Z,18.90
2018-05-15T12:42:35.610Z,20.30
2018-05-15T12:43:35.659Z,20.20
2018-05-15T12:44:35.707Z,19.70
2018-05-15T12:45:35.759Z,20.40
2018-05-15T12:46:35.835Z,19.40
2018-05-15T12:47:35.854Z,19.10
2018-05-15T12:48:35.908Z,19.10
2018-05-15T12:49:35.950Z,20.20
2018-05-15T12:50:35.999Z,18.70
2018-05-15T12:51:36.049Z,20.50
2018-05-15T12:52:36.096Z,19.40
2018-05-15T12:53:36.145Z,18.00
2018-05-15T12:54:36.192Z,18.10
2018-05-15T12:55:36.254Z,19.80
2018-05-15T12:56:36.288Z,18.80
2018-05-15T12:57:36.335Z,18.10
2018-05-15T12:58:36.384Z,19.30